sensor_id;sensor_type;location;lat;lon;timestamp;temperature;humidity
12841;DHT22;6487;48.626;12.486;2022-07-23T00:01:31;24.20;89.40
12841;DHT22;6487;48.626;12.486;2022-07-23T00:04:00;24.10;89.50
12841;DHT22;6487;48.626;12.486;2022-07-23T00:06:28;24.00;89.20
12841;DHT22;6487;48.626;12.486;2022-07-23T00:08:57;24.10;89.50
12841;DHT22;6487;48.626;12.486;2022-07-23T00:11:25;24.10;88.80
12841;DHT22;6487;48.626;12.486;2022-07-23T00:13:54;24.10;89.40
12841;DHT22;6487;48.626;12.486;2022-07-23T00:16:26;24.00;89.80
12841;DHT22;6487;48.626;12.486;2022-07-23T00:18:55;24.00;90.60
12841;DHT22;6487;48.626;12.486;2022-07-23T00:21:23;24.00;90.40
12841;DHT22;6487;48.626;12.486;2022-07-23T00:23:52;24.00;90.50
12841;DHT22;6487;48.626;12.486;2022-07-23T00:26:20;24.00;90.60
12841;DHT22;6487;48.626;12.486;2022-07-23T00:28:48;23.90;90.70
12841;DHT22;6487;48.626;12.486;2022-07-23T00:31:17;23.90;90.70
12841;DHT22;6487;48.626;12.486;2022-07-23T00:33:47;23.90;90.70
12841;DHT22;6487;48.626;12.486;2022-07-23T00:36:15;23.80;90.30
12841;DHT22;6487;48.626;12.486;2022-07-23T00:38:44;23.70;90.70
12841;DHT22;6487;48.626;12.486;2022-07-23T00:41:12;23.70;90.80
12841;DHT22;6487;48.626;12.486;2022-07-23T00:43:40;23.70;91.50
12841;DHT22;6487;48.626;12.486;2022-07-23T00:46:09;23.70;92.30
12841;DHT22;6487;48.626;12.486;2022-07-23T00:48:37;23.30;91.30
12841;DHT22;6487;48.626;12.486;2022-07-23T00:51:07;23.20;91.40
12841;DHT22;6487;48.626;12.486;2022-07-23T00:53:35;23.50;91.60
12841;DHT22;6487;48.626;12.486;2022-07-23T00:56:04;23.40;92.00
12841;DHT22;6487;48.626;12.486;2022-07-23T00:58:35;23.50;91.50
12841;DHT22;6487;48.626;12.486;2022-07-23T01:01:04;23.60;91.40
12841;DHT22;6487;48.626;12.486;2022-07-23T01:03:32;23.80;91.30
12841;DHT22;6487;48.626;12.486;2022-07-23T01:06:01;23.80;91.50
12841;DHT22;6487;48.626;12.486;2022-07-23T01:08:30;23.60;91.80
12841;DHT22;6487;48.626;12.486;2022-07-23T01:10:59;23.70;91.90
12841;DHT22;6487;48.626;12.486;2022-07-23T01:13:27;23.80;91.80
12841;DHT22;6487;48.626;12.486;2022-07-23T01:15:55;23.90;91.90
12841;DHT22;6487;48.626;12.486;2022-07-23T01:18:24;23.80;91.60
12841;DHT22;6487;48.626;12.486;2022-07-23T01:20:52;23.70;91.80
12841;DHT22;6487;48.626;12.486;2022-07-23T01:23:22;23.70;91.90
12841;DHT22;6487;48.626;12.486;2022-07-23T01:25:52;23.70;91.90
12841;DHT22;6487;48.626;12.486;2022-07-23T01:28:21;23.80;92.20
12841;DHT22;6487;48.626;12.486;2022-07-23T01:30:50;23.70;92.30
12841;DHT22;6487;48.626;12.486;2022-07-23T01:33:18;23.70;92.70
12841;DHT22;6487;48.626;12.486;2022-07-23T01:35:46;23.80;92.30
12841;DHT22;6487;48.626;12.486;2022-07-23T01:38:15;23.70;92.20
12841;DHT22;6487;48.626;12.486;2022-07-23T01:40:44;23.70;92.30
12841;DHT22;6487;48.626;12.486;2022-07-23T01:43:20;23.70;92.40
12841;DHT22;6487;48.626;12.486;2022-07-23T01:45:51;23.80;92.40
12841;DHT22;6487;48.626;12.486;2022-07-23T01:48:19;23.80;92.90
12841;DHT22;6487;48.626;12.486;2022-07-23T01:50:48;23.70;92.70
12841;DHT22;6487;48.626;12.486;2022-07-23T01:53:16;23.70;92.70
12841;DHT22;6487;48.626;12.486;2022-07-23T01:55:46;23.70;92.70
12841;DHT22;6487;48.626;12.486;2022-07-23T01:58:15;23.70;93.10
12841;DHT22;6487;48.626;12.486;2022-07-23T02:00:43;23.70;92.90
12841;DHT22;6487;48.626;12.486;2022-07-23T02:03:11;23.70;93.00
12841;DHT22;6487;48.626;12.486;2022-07-23T02:05:40;23.70;93.20
12841;DHT22;6487;48.626;12.486;2022-07-23T02:08:08;23.70;93.30
12841;DHT22;6487;48.626;12.486;2022-07-23T02:10:37;23.70;93.20
12841;DHT22;6487;48.626;12.486;2022-07-23T02:13:06;23.60;93.60
12841;DHT22;6487;48.626;12.486;2022-07-23T02:15:35;23.60;93.50
12841;DHT22;6487;48.626;12.486;2022-07-23T02:18:03;23.70;93.30
12841;DHT22;6487;48.626;12.486;2022-07-23T02:20:32;23.70;93.50
12841;DHT22;6487;48.626;12.486;2022-07-23T02:23:00;23.60;93.80
12841;DHT22;6487;48.626;12.486;2022-07-23T02:25:29;23.30;94.20
12841;DHT22;6487;48.626;12.486;2022-07-23T02:27:57;23.40;93.90
12841;DHT22;6487;48.626;12.486;2022-07-23T02:30:27;23.50;93.70
12841;DHT22;6487;48.626;12.486;2022-07-23T02:32:55;23.40;93.80
12841;DHT22;6487;48.626;12.486;2022-07-23T02:35:24;23.30;94.00
12841;DHT22;6487;48.626;12.486;2022-07-23T02:37:52;23.20;94.10
12841;DHT22;6487;48.626;12.486;2022-07-23T02:40:20;23.00;94.10
12841;DHT22;6487;48.626;12.486;2022-07-23T02:42:49;23.00;94.10
12841;DHT22;6487;48.626;12.486;2022-07-23T02:45:17;23.00;93.30
12841;DHT22;6487;48.626;12.486;2022-07-23T02:47:47;23.10;93.00
12841;DHT22;6487;48.626;12.486;2022-07-23T02:50:15;23.20;93.00
12841;DHT22;6487;48.626;12.486;2022-07-23T02:52:43;23.20;92.20
12841;DHT22;6487;48.626;12.486;2022-07-23T02:55:12;23.30;91.70
12841;DHT22;6487;48.626;12.486;2022-07-23T02:57:40;23.20;91.50
12841;DHT22;6487;48.626;12.486;2022-07-23T03:00:10;23.30;91.10
12841;DHT22;6487;48.626;12.486;2022-07-23T03:02:39;23.30;90.80
12841;DHT22;6487;48.626;12.486;2022-07-23T03:05:09;23.30;90.30
12841;DHT22;6487;48.626;12.486;2022-07-23T03:07:37;23.30;89.40
12841;DHT22;6487;48.626;12.486;2022-07-23T03:10:06;23.30;89.80
12841;DHT22;6487;48.626;12.486;2022-07-23T03:12:35;23.30;90.10
12841;DHT22;6487;48.626;12.486;2022-07-23T03:15:04;23.20;91.00
12841;DHT22;6487;48.626;12.486;2022-07-23T03:17:33;23.20;90.50
12841;DHT22;6487;48.626;12.486;2022-07-23T03:20:03;23.20;91.60
12841;DHT22;6487;48.626;12.486;2022-07-23T03:22:33;23.00;92.30
12841;DHT22;6487;48.626;12.486;2022-07-23T03:25:02;22.90;92.70
12841;DHT22;6487;48.626;12.486;2022-07-23T03:27:30;22.90;92.90
12841;DHT22;6487;48.626;12.486;2022-07-23T03:29:59;22.80;93.00
12841;DHT22;6487;48.626;12.486;2022-07-23T03:32:28;22.60;93.10
12841;DHT22;6487;48.626;12.486;2022-07-23T03:34:56;22.60;92.80
12841;DHT22;6487;48.626;12.486;2022-07-23T03:37:26;22.50;92.80
12841;DHT22;6487;48.626;12.486;2022-07-23T03:39:56;22.40;92.50
12841;DHT22;6487;48.626;12.486;2022-07-23T03:42:24;22.50;93.00
12841;DHT22;6487;48.626;12.486;2022-07-23T03:44:53;22.50;93.10
12841;DHT22;6487;48.626;12.486;2022-07-23T03:47:21;22.50;92.80
12841;DHT22;6487;48.626;12.486;2022-07-23T03:49:49;22.40;92.90
12841;DHT22;6487;48.626;12.486;2022-07-23T03:52:18;22.40;92.80
12841;DHT22;6487;48.626;12.486;2022-07-23T03:54:46;22.30;93.10
12841;DHT22;6487;48.626;12.486;2022-07-23T03:57:16;22.40;93.30
12841;DHT22;6487;48.626;12.486;2022-07-23T03:59:44;22.30;93.30
12841;DHT22;6487;48.626;12.486;2022-07-23T04:02:12;22.30;93.80
12841;DHT22;6487;48.626;12.486;2022-07-23T04:04:41;22.30;94.10
12841;DHT22;6487;48.626;12.486;2022-07-23T04:07:09;22.20;94.50
12841;DHT22;6487;48.626;12.486;2022-07-23T04:09:37;22.30;95.70
12841;DHT22;6487;48.626;12.486;2022-07-23T04:12:12;22.30;95.50
12841;DHT22;6487;48.626;12.486;2022-07-23T04:14:42;22.10;95.60
12841;DHT22;6487;48.626;12.486;2022-07-23T04:17:10;21.90;95.10
12841;DHT22;6487;48.626;12.486;2022-07-23T04:19:39;21.70;94.10
12841;DHT22;6487;48.626;12.486;2022-07-23T04:22:08;21.80;95.60
12841;DHT22;6487;48.626;12.486;2022-07-23T04:24:37;21.60;96.10
12841;DHT22;6487;48.626;12.486;2022-07-23T04:27:05;21.60;96.50
12841;DHT22;6487;48.626;12.486;2022-07-23T04:29:34;21.60;96.50
12841;DHT22;6487;48.626;12.486;2022-07-23T04:32:04;21.60;97.30
12841;DHT22;6487;48.626;12.486;2022-07-23T04:34:33;21.60;97.30
12841;DHT22;6487;48.626;12.486;2022-07-23T04:37:01;21.60;97.30
12841;DHT22;6487;48.626;12.486;2022-07-23T04:39:30;21.60;97.60
12841;DHT22;6487;48.626;12.486;2022-07-23T04:41:58;21.60;97.30
12841;DHT22;6487;48.626;12.486;2022-07-23T04:44:27;21.40;96.10
12841;DHT22;6487;48.626;12.486;2022-07-23T04:46:55;21.40;96.20
12841;DHT22;6487;48.626;12.486;2022-07-23T04:49:25;21.40;96.80
12841;DHT22;6487;48.626;12.486;2022-07-23T04:51:53;21.40;96.60
12841;DHT22;6487;48.626;12.486;2022-07-23T04:54:21;21.40;96.90
12841;DHT22;6487;48.626;12.486;2022-07-23T04:56:50;21.50;96.90
12841;DHT22;6487;48.626;12.486;2022-07-23T04:59:18;21.30;96.50
12841;DHT22;6487;48.626;12.486;2022-07-23T05:01:46;21.40;97.10
12841;DHT22;6487;48.626;12.486;2022-07-23T05:04:15;21.50;97.60
12841;DHT22;6487;48.626;12.486;2022-07-23T05:06:45;21.40;96.90
12841;DHT22;6487;48.626;12.486;2022-07-23T05:09:13;21.50;97.60
12841;DHT22;6487;48.626;12.486;2022-07-23T05:11:42;21.40;96.90
12841;DHT22;6487;48.626;12.486;2022-07-23T05:14:10;21.40;96.60
12841;DHT22;6487;48.626;12.486;2022-07-23T05:16:39;21.40;96.80
12841;DHT22;6487;48.626;12.486;2022-07-23T05:19:08;21.50;96.60
12841;DHT22;6487;48.626;12.486;2022-07-23T05:21:36;21.50;96.20
12841;DHT22;6487;48.626;12.486;2022-07-23T05:24:06;21.60;96.50
12841;DHT22;6487;48.626;12.486;2022-07-23T05:26:35;21.60;96.10
12841;DHT22;6487;48.626;12.486;2022-07-23T05:29:04;21.70;96.30
12841;DHT22;6487;48.626;12.486;2022-07-23T05:31:33;21.60;96.20
12841;DHT22;6487;48.626;12.486;2022-07-23T05:34:02;21.60;97.10
12841;DHT22;6487;48.626;12.486;2022-07-23T05:36:31;21.70;97.10
12841;DHT22;6487;48.626;12.486;2022-07-23T05:39:00;21.80;96.70
12841;DHT22;6487;48.626;12.486;2022-07-23T05:41:30;21.80;96.80
12841;DHT22;6487;48.626;12.486;2022-07-23T05:43:59;21.80;96.80
12841;DHT22;6487;48.626;12.486;2022-07-23T05:46:27;21.90;96.00
12841;DHT22;6487;48.626;12.486;2022-07-23T05:48:56;22.00;96.00
12841;DHT22;6487;48.626;12.486;2022-07-23T05:51:25;22.00;96.10
12841;DHT22;6487;48.626;12.486;2022-07-23T05:53:54;22.10;96.30
12841;DHT22;6487;48.626;12.486;2022-07-23T05:56:22;22.10;95.80
12841;DHT22;6487;48.626;12.486;2022-07-23T05:58:52;22.20;96.00
12841;DHT22;6487;48.626;12.486;2022-07-23T06:01:20;22.20;96.80
12841;DHT22;6487;48.626;12.486;2022-07-23T06:03:48;22.20;95.50
12841;DHT22;6487;48.626;12.486;2022-07-23T06:06:17;22.30;95.80
12841;DHT22;6487;48.626;12.486;2022-07-23T06:08:45;22.40;96.30
12841;DHT22;6487;48.626;12.486;2022-07-23T06:11:14;22.40;97.10
12841;DHT22;6487;48.626;12.486;2022-07-23T06:13:42;22.40;96.10
12841;DHT22;6487;48.626;12.486;2022-07-23T06:16:12;22.50;96.60
12841;DHT22;6487;48.626;12.486;2022-07-23T06:18:40;22.60;96.20
12841;DHT22;6487;48.626;12.486;2022-07-23T06:21:09;22.60;96.00
12841;DHT22;6487;48.626;12.486;2022-07-23T06:23:57;22.70;94.60
12841;DHT22;6487;48.626;12.486;2022-07-23T06:26:25;22.80;94.80
12841;DHT22;6487;48.626;12.486;2022-07-23T06:28:54;23.00;95.20
12841;DHT22;6487;48.626;12.486;2022-07-23T06:31:23;23.10;95.40
12841;DHT22;6487;48.626;12.486;2022-07-23T06:33:52;23.20;94.70
12841;DHT22;6487;48.626;12.486;2022-07-23T06:36:20;23.30;94.70
12841;DHT22;6487;48.626;12.486;2022-07-23T06:38:49;23.40;94.80
12841;DHT22;6487;48.626;12.486;2022-07-23T06:41:17;23.60;94.10
12841;DHT22;6487;48.626;12.486;2022-07-23T06:43:46;23.70;92.90
12841;DHT22;6487;48.626;12.486;2022-07-23T06:46:14;23.90;93.40
12841;DHT22;6487;48.626;12.486;2022-07-23T06:48:44;24.00;92.90
12841;DHT22;6487;48.626;12.486;2022-07-23T06:51:12;24.10;92.80
12841;DHT22;6487;48.626;12.486;2022-07-23T06:53:41;24.10;93.60
12841;DHT22;6487;48.626;12.486;2022-07-23T06:56:09;24.20;93.40
12841;DHT22;6487;48.626;12.486;2022-07-23T06:58:38;24.40;93.00
12841;DHT22;6487;48.626;12.486;2022-07-23T07:01:06;24.50;93.40
12841;DHT22;6487;48.626;12.486;2022-07-23T07:03:35;24.60;92.60
12841;DHT22;6487;48.626;12.486;2022-07-23T07:06:05;24.60;92.70
12841;DHT22;6487;48.626;12.486;2022-07-23T07:08:33;24.70;93.10
12841;DHT22;6487;48.626;12.486;2022-07-23T07:11:02;24.80;92.20
12841;DHT22;6487;48.626;12.486;2022-07-23T07:13:31;24.90;92.90
12841;DHT22;6487;48.626;12.486;2022-07-23T07:15:59;25.10;93.20
12841;DHT22;6487;48.626;12.486;2022-07-23T07:18:27;25.20;92.10
12841;DHT22;6487;48.626;12.486;2022-07-23T07:20:57;25.20;91.80
12841;DHT22;6487;48.626;12.486;2022-07-23T07:23:26;25.20;91.20
12841;DHT22;6487;48.626;12.486;2022-07-23T07:25:55;25.30;90.90
12841;DHT22;6487;48.626;12.486;2022-07-23T07:28:23;25.50;91.30
12841;DHT22;6487;48.626;12.486;2022-07-23T07:30:51;25.70;90.50
12841;DHT22;6487;48.626;12.486;2022-07-23T07:33:20;25.70;91.10
12841;DHT22;6487;48.626;12.486;2022-07-23T07:35:49;25.80;90.60
12841;DHT22;6487;48.626;12.486;2022-07-23T07:38:17;25.90;90.00
12841;DHT22;6487;48.626;12.486;2022-07-23T07:40:47;26.00;89.80
12841;DHT22;6487;48.626;12.486;2022-07-23T07:43:15;26.00;90.50
12841;DHT22;6487;48.626;12.486;2022-07-23T07:45:43;26.20;89.80
12841;DHT22;6487;48.626;12.486;2022-07-23T07:48:12;26.20;90.20
12841;DHT22;6487;48.626;12.486;2022-07-23T07:50:40;26.20;90.20
12841;DHT22;6487;48.626;12.486;2022-07-23T07:53:10;26.30;88.70
12841;DHT22;6487;48.626;12.486;2022-07-23T07:55:39;26.40;90.00
12841;DHT22;6487;48.626;12.486;2022-07-23T07:58:08;26.40;88.60
12841;DHT22;6487;48.626;12.486;2022-07-23T08:00:37;26.50;88.90
12841;DHT22;6487;48.626;12.486;2022-07-23T08:03:05;26.50;90.00
12841;DHT22;6487;48.626;12.486;2022-07-23T08:05:34;26.40;88.60
12841;DHT22;6487;48.626;12.486;2022-07-23T08:08:02;26.50;90.30
12841;DHT22;6487;48.626;12.486;2022-07-23T08:10:31;26.40;89.60
12841;DHT22;6487;48.626;12.486;2022-07-23T08:12:59;26.50;90.40
12841;DHT22;6487;48.626;12.486;2022-07-23T08:15:30;26.40;91.10
12841;DHT22;6487;48.626;12.486;2022-07-23T08:17:59;26.30;91.20
12841;DHT22;6487;48.626;12.486;2022-07-23T08:20:28;26.30;91.70
12841;DHT22;6487;48.626;12.486;2022-07-23T08:22:58;26.10;91.80
12841;DHT22;6487;48.626;12.486;2022-07-23T08:25:29;26.10;91.70
12841;DHT22;6487;48.626;12.486;2022-07-23T08:27:59;26.10;91.60
12841;DHT22;6487;48.626;12.486;2022-07-23T08:30:30;26.10;91.50
12841;DHT22;6487;48.626;12.486;2022-07-23T08:33:00;26.00;92.20
12841;DHT22;6487;48.626;12.486;2022-07-23T08:35:32;26.00;91.90
12841;DHT22;6487;48.626;12.486;2022-07-23T08:38:03;26.00;92.20
12841;DHT22;6487;48.626;12.486;2022-07-23T08:40:33;26.00;91.80
12841;DHT22;6487;48.626;12.486;2022-07-23T08:43:11;26.00;91.70
12841;DHT22;6487;48.626;12.486;2022-07-23T08:45:43;26.00;91.60
12841;DHT22;6487;48.626;12.486;2022-07-23T08:48:13;25.90;91.80
12841;DHT22;6487;48.626;12.486;2022-07-23T08:50:44;25.90;91.90
12841;DHT22;6487;48.626;12.486;2022-07-23T08:53:14;25.80;91.90
12841;DHT22;6487;48.626;12.486;2022-07-23T08:55:44;25.70;91.70
12841;DHT22;6487;48.626;12.486;2022-07-23T08:58:13;25.70;91.50
12841;DHT22;6487;48.626;12.486;2022-07-23T09:00:44;25.70;91.60
12841;DHT22;6487;48.626;12.486;2022-07-23T09:03:16;25.70;91.50
12841;DHT22;6487;48.626;12.486;2022-07-23T09:05:46;25.70;91.60
12841;DHT22;6487;48.626;12.486;2022-07-23T09:08:16;25.70;91.30
12841;DHT22;6487;48.626;12.486;2022-07-23T09:10:48;25.70;91.10
12841;DHT22;6487;48.626;12.486;2022-07-23T09:13:27;25.60;90.90
12841;DHT22;6487;48.626;12.486;2022-07-23T09:16:01;25.60;91.60
12841;DHT22;6487;48.626;12.486;2022-07-23T09:18:33;25.70;90.80
12841;DHT22;6487;48.626;12.486;2022-07-23T09:21:11;25.80;91.20
12841;DHT22;6487;48.626;12.486;2022-07-23T09:23:45;25.70;91.40
12841;DHT22;6487;48.626;12.486;2022-07-23T09:26:28;25.70;91.20
12841;DHT22;6487;48.626;12.486;2022-07-23T09:29:11;25.80;91.10
12841;DHT22;6487;48.626;12.486;2022-07-23T09:31:46;25.70;90.80
12841;DHT22;6487;48.626;12.486;2022-07-23T09:34:19;25.70;91.10
12841;DHT22;6487;48.626;12.486;2022-07-23T09:36:51;25.70;91.40
12841;DHT22;6487;48.626;12.486;2022-07-23T09:39:28;25.70;91.50
12841;DHT22;6487;48.626;12.486;2022-07-23T09:41:58;25.80;91.80
12841;DHT22;6487;48.626;12.486;2022-07-23T09:44:41;25.80;92.10
12841;DHT22;6487;48.626;12.486;2022-07-23T09:47:11;25.80;92.00
12841;DHT22;6487;48.626;12.486;2022-07-23T09:49:41;25.80;92.30
12841;DHT22;6487;48.626;12.486;2022-07-23T09:52:26;25.60;92.20
12841;DHT22;6487;48.626;12.486;2022-07-23T09:55:03;25.60;91.90
12841;DHT22;6487;48.626;12.486;2022-07-23T09:57:33;25.60;92.10
12841;DHT22;6487;48.626;12.486;2022-07-23T10:00:04;25.50;93.60
12841;DHT22;6487;48.626;12.486;2022-07-23T10:02:35;25.50;93.00
12841;DHT22;6487;48.626;12.486;2022-07-23T10:05:06;25.50;93.70
12841;DHT22;6487;48.626;12.486;2022-07-23T10:07:37;25.50;93.60
12841;DHT22;6487;48.626;12.486;2022-07-23T10:10:10;25.50;93.30
12841;DHT22;6487;48.626;12.486;2022-07-23T10:12:39;25.50;94.10
12841;DHT22;6487;48.626;12.486;2022-07-23T10:15:25;25.40;93.60
12841;DHT22;6487;48.626;12.486;2022-07-23T10:17:55;25.40;93.20
12841;DHT22;6487;48.626;12.486;2022-07-23T10:20:23;25.40;93.60
12841;DHT22;6487;48.626;12.486;2022-07-23T10:22:59;25.40;93.20
12841;DHT22;6487;48.626;12.486;2022-07-23T10:25:34;25.40;94.10
12841;DHT22;6487;48.626;12.486;2022-07-23T10:28:22;25.50;94.40
12841;DHT22;6487;48.626;12.486;2022-07-23T10:31:06;25.70;94.40
12841;DHT22;6487;48.626;12.486;2022-07-23T10:34:11;25.80;94.50
12841;DHT22;6487;48.626;12.486;2022-07-23T10:36:47;26.00;92.70
12841;DHT22;6487;48.626;12.486;2022-07-23T10:39:22;26.00;91.70
12841;DHT22;6487;48.626;12.486;2022-07-23T10:41:52;26.20;92.20
12841;DHT22;6487;48.626;12.486;2022-07-23T10:44:39;26.20;91.90
12841;DHT22;6487;48.626;12.486;2022-07-23T10:47:09;26.40;91.70
12841;DHT22;6487;48.626;12.486;2022-07-23T10:50:23;26.70;91.80
12841;DHT22;6487;48.626;12.486;2022-07-23T10:53:15;26.90;90.70
12841;DHT22;6487;48.626;12.486;2022-07-23T10:55:50;27.10;90.80
12841;DHT22;6487;48.626;12.486;2022-07-23T10:58:21;27.20;90.70
12841;DHT22;6487;48.626;12.486;2022-07-23T11:00:50;27.40;90.30
12841;DHT22;6487;48.626;12.486;2022-07-23T11:03:31;27.40;90.40
12841;DHT22;6487;48.626;12.486;2022-07-23T11:06:05;27.70;90.50
12841;DHT22;6487;48.626;12.486;2022-07-23T11:08:34;28.00;89.80
12841;DHT22;6487;48.626;12.486;2022-07-23T11:11:10;28.10;88.00
12841;DHT22;6487;48.626;12.486;2022-07-23T11:13:46;28.30;88.70
12841;DHT22;6487;48.626;12.486;2022-07-23T11:16:21;28.30;88.00
12841;DHT22;6487;48.626;12.486;2022-07-23T11:19:04;28.30;89.50
12841;DHT22;6487;48.626;12.486;2022-07-23T11:21:46;28.40;87.80
12841;DHT22;6487;48.626;12.486;2022-07-23T11:24:20;28.60;88.10
12841;DHT22;6487;48.626;12.486;2022-07-23T11:26:57;28.70;87.20
12841;DHT22;6487;48.626;12.486;2022-07-23T11:29:46;28.90;87.20
12841;DHT22;6487;48.626;12.486;2022-07-23T11:32:36;28.90;85.30
12841;DHT22;6487;48.626;12.486;2022-07-23T11:35:19;29.20;86.40
12841;DHT22;6487;48.626;12.486;2022-07-23T11:37:51;29.40;84.00
12841;DHT22;6487;48.626;12.486;2022-07-23T11:40:25;29.50;83.10
12841;DHT22;6487;48.626;12.486;2022-07-23T11:42:57;29.70;81.30
12841;DHT22;6487;48.626;12.486;2022-07-23T11:45:31;29.70;81.70
12841;DHT22;6487;48.626;12.486;2022-07-23T11:48:02;29.60;82.50
12841;DHT22;6487;48.626;12.486;2022-07-23T11:50:32;29.80;82.70
12841;DHT22;6487;48.626;12.486;2022-07-23T11:53:02;29.80;80.50
12841;DHT22;6487;48.626;12.486;2022-07-23T11:55:31;29.90;80.90
12841;DHT22;6487;48.626;12.486;2022-07-23T11:57:59;30.00;80.70
12841;DHT22;6487;48.626;12.486;2022-07-23T12:00:29;30.10;80.60
12841;DHT22;6487;48.626;12.486;2022-07-23T12:03:06;30.10;79.60
12841;DHT22;6487;48.626;12.486;2022-07-23T12:05:36;30.20;79.90
12841;DHT22;6487;48.626;12.486;2022-07-23T12:08:08;30.30;79.50
12841;DHT22;6487;48.626;12.486;2022-07-23T12:10:39;30.10;79.50
12841;DHT22;6487;48.626;12.486;2022-07-23T12:13:10;30.20;78.30
12841;DHT22;6487;48.626;12.486;2022-07-23T12:15:43;30.20;78.30
12841;DHT22;6487;48.626;12.486;2022-07-23T12:18:14;30.40;77.80
12841;DHT22;6487;48.626;12.486;2022-07-23T12:20:46;30.50;77.70
12841;DHT22;6487;48.626;12.486;2022-07-23T12:23:19;30.40;75.80
12841;DHT22;6487;48.626;12.486;2022-07-23T12:25:50;30.60;77.60
12841;DHT22;6487;48.626;12.486;2022-07-23T12:28:20;30.70;78.00
12841;DHT22;6487;48.626;12.486;2022-07-23T12:30:50;30.90;77.70
12841;DHT22;6487;48.626;12.486;2022-07-23T12:33:23;31.00;79.40
12841;DHT22;6487;48.626;12.486;2022-07-23T12:35:53;31.10;77.70
12841;DHT22;6487;48.626;12.486;2022-07-23T12:38:26;31.20;75.70
12841;DHT22;6487;48.626;12.486;2022-07-23T12:40:56;30.90;73.60
12841;DHT22;6487;48.626;12.486;2022-07-23T12:43:27;31.00;75.30
12841;DHT22;6487;48.626;12.486;2022-07-23T12:46:01;31.30;75.10
12841;DHT22;6487;48.626;12.486;2022-07-23T12:48:32;31.10;73.40
12841;DHT22;6487;48.626;12.486;2022-07-23T12:51:05;31.10;74.00
12841;DHT22;6487;48.626;12.486;2022-07-23T12:53:39;31.00;74.00
12841;DHT22;6487;48.626;12.486;2022-07-23T12:56:12;30.90;75.20
12841;DHT22;6487;48.626;12.486;2022-07-23T12:58:47;30.90;74.20
12841;DHT22;6487;48.626;12.486;2022-07-23T13:01:28;31.00;75.20
12841;DHT22;6487;48.626;12.486;2022-07-23T13:04:04;31.10;73.00
12841;DHT22;6487;48.626;12.486;2022-07-23T13:06:40;31.10;72.70
12841;DHT22;6487;48.626;12.486;2022-07-23T13:09:13;31.10;71.30
12841;DHT22;6487;48.626;12.486;2022-07-23T13:11:44;31.00;73.00
12841;DHT22;6487;48.626;12.486;2022-07-23T13:14:14;30.90;73.40
12841;DHT22;6487;48.626;12.486;2022-07-23T13:16:43;31.10;73.90
12841;DHT22;6487;48.626;12.486;2022-07-23T13:19:14;31.30;75.40
12841;DHT22;6487;48.626;12.486;2022-07-23T13:21:45;31.30;74.20
12841;DHT22;6487;48.626;12.486;2022-07-23T13:24:15;31.20;72.70
12841;DHT22;6487;48.626;12.486;2022-07-23T13:26:46;30.90;73.30
12841;DHT22;6487;48.626;12.486;2022-07-23T13:29:16;31.00;75.00
12841;DHT22;6487;48.626;12.486;2022-07-23T13:31:46;31.10;73.40
12841;DHT22;6487;48.626;12.486;2022-07-23T13:34:16;31.30;74.60
12841;DHT22;6487;48.626;12.486;2022-07-23T13:36:46;31.50;75.50
12841;DHT22;6487;48.626;12.486;2022-07-23T13:39:15;31.50;74.90
12841;DHT22;6487;48.626;12.486;2022-07-23T13:41:44;31.70;74.90
12841;DHT22;6487;48.626;12.486;2022-07-23T13:44:16;31.90;74.00
12841;DHT22;6487;48.626;12.486;2022-07-23T13:46:48;31.50;71.40
12841;DHT22;6487;48.626;12.486;2022-07-23T13:49:17;31.40;71.60
12841;DHT22;6487;48.626;12.486;2022-07-23T13:51:48;31.60;73.40
12841;DHT22;6487;48.626;12.486;2022-07-23T13:54:18;31.80;72.60
12841;DHT22;6487;48.626;12.486;2022-07-23T13:56:46;31.90;74.20
12841;DHT22;6487;48.626;12.486;2022-07-23T13:59:15;31.90;72.40
12841;DHT22;6487;48.626;12.486;2022-07-23T14:01:44;31.80;72.80
12841;DHT22;6487;48.626;12.486;2022-07-23T14:04:32;31.80;73.00
12841;DHT22;6487;48.626;12.486;2022-07-23T14:07:01;31.70;71.20
12841;DHT22;6487;48.626;12.486;2022-07-23T14:09:31;31.50;72.50
12841;DHT22;6487;48.626;12.486;2022-07-23T14:12:01;31.50;72.20
12841;DHT22;6487;48.626;12.486;2022-07-23T14:14:29;31.50;73.60
12841;DHT22;6487;48.626;12.486;2022-07-23T14:16:58;31.50;73.40
12841;DHT22;6487;48.626;12.486;2022-07-23T14:19:27;31.40;72.60
12841;DHT22;6487;48.626;12.486;2022-07-23T14:21:57;31.30;72.30
12841;DHT22;6487;48.626;12.486;2022-07-23T14:24:25;31.30;76.30
12841;DHT22;6487;48.626;12.486;2022-07-23T14:27:01;31.20;79.70
12841;DHT22;6487;48.626;12.486;2022-07-23T14:29:32;31.10;81.80
12841;DHT22;6487;48.626;12.486;2022-07-23T14:32:01;31.10;80.80
12841;DHT22;6487;48.626;12.486;2022-07-23T14:34:33;30.90;81.60
12841;DHT22;6487;48.626;12.486;2022-07-23T14:37:04;30.90;80.90
12841;DHT22;6487;48.626;12.486;2022-07-23T14:39:33;30.90;79.50
12841;DHT22;6487;48.626;12.486;2022-07-23T14:42:03;30.90;80.30
12841;DHT22;6487;48.626;12.486;2022-07-23T14:44:31;31.00;78.90
12841;DHT22;6487;48.626;12.486;2022-07-23T14:47:00;31.00;77.80
12841;DHT22;6487;48.626;12.486;2022-07-23T14:49:29;30.90;78.20
12841;DHT22;6487;48.626;12.486;2022-07-23T14:51:58;31.00;78.60
12841;DHT22;6487;48.626;12.486;2022-07-23T14:54:27;30.90;74.00
12841;DHT22;6487;48.626;12.486;2022-07-23T14:56:57;31.00;76.50
12841;DHT22;6487;48.626;12.486;2022-07-23T14:59:29;30.90;75.10
12841;DHT22;6487;48.626;12.486;2022-07-23T15:01:58;30.70;74.50
12841;DHT22;6487;48.626;12.486;2022-07-23T15:04:26;30.30;73.30
12841;DHT22;6487;48.626;12.486;2022-07-23T15:07:04;30.10;73.90
12841;DHT22;6487;48.626;12.486;2022-07-23T15:09:33;29.90;74.20
12841;DHT22;6487;48.626;12.486;2022-07-23T15:12:02;29.80;74.60
12841;DHT22;6487;48.626;12.486;2022-07-23T15:14:35;29.60;74.80
12841;DHT22;6487;48.626;12.486;2022-07-23T15:17:04;29.40;74.70
12841;DHT22;6487;48.626;12.486;2022-07-23T15:19:34;29.30;75.10
12841;DHT22;6487;48.626;12.486;2022-07-23T15:22:02;29.10;75.40
12841;DHT22;6487;48.626;12.486;2022-07-23T15:24:32;29.20;75.50
12841;DHT22;6487;48.626;12.486;2022-07-23T15:27:01;29.30;75.70
12841;DHT22;6487;48.626;12.486;2022-07-23T15:29:51;29.30;76.20
12841;DHT22;6487;48.626;12.486;2022-07-23T15:32:19;29.10;77.10
12841;DHT22;6487;48.626;12.486;2022-07-23T15:34:51;29.20;78.60
12841;DHT22;6487;48.626;12.486;2022-07-23T15:37:20;29.20;79.60
12841;DHT22;6487;48.626;12.486;2022-07-23T15:39:51;29.00;78.40
12841;DHT22;6487;48.626;12.486;2022-07-23T15:42:20;27.90;85.10
12841;DHT22;6487;48.626;12.486;2022-07-23T15:44:49;27.10;89.70
12841;DHT22;6487;48.626;12.486;2022-07-23T15:47:18;26.60;91.90
12841;DHT22;6487;48.626;12.486;2022-07-23T15:49:48;26.10;92.70
12841;DHT22;6487;48.626;12.486;2022-07-23T15:52:17;25.80;92.70